sensor_id;sensor_type;location;lat;lon;timestamp;temperature;humidity
53314;DHT22;39202;51.468;7.146;2022-10-26T00:03:11;24.40;45.50
53314;DHT22;39202;51.468;7.146;2022-10-26T00:08:12;24.40;45.60
53314;DHT22;39202;51.468;7.146;2022-10-26T00:13:14;24.40;45.60
53314;DHT22;39202;51.468;7.146;2022-10-26T00:18:17;24.40;45.60
53314;DHT22;39202;51.468;7.146;2022-10-26T00:23:19;24.30;45.50
53314;DHT22;39202;51.468;7.146;2022-10-26T00:28:20;24.30;45.50
53314;DHT22;39202;51.468;7.146;2022-10-26T00:33:23;24.30;45.60
53314;DHT22;39202;51.468;7.146;2022-10-26T00:38:25;24.30;45.60
53314;DHT22;39202;51.468;7.146;2022-10-26T00:43:35;24.30;45.60
53314;DHT22;39202;51.468;7.146;2022-10-26T00:48:41;24.30;45.60
53314;DHT22;39202;51.468;7.146;2022-10-26T00:53:43;24.30;45.60
53314;DHT22;39202;51.468;7.146;2022-10-26T00:58:45;24.30;45.60
53314;DHT22;39202;51.468;7.146;2022-10-26T01:03:48;24.30;45.60
53314;DHT22;39202;51.468;7.146;2022-10-26T01:08:50;24.30;45.60
53314;DHT22;39202;51.468;7.146;2022-10-26T01:13:53;24.30;45.60
53314;DHT22;39202;51.468;7.146;2022-10-26T01:19:14;24.30;45.70
53314;DHT22;39202;51.468;7.146;2022-10-26T01:24:40;24.20;45.70
53314;DHT22;39202;51.468;7.146;2022-10-26T01:35:11;24.30;45.70
53314;DHT22;39202;51.468;7.146;2022-10-26T01:40:19;24.20;45.60
53314;DHT22;39202;51.468;7.146;2022-10-26T01:45:23;24.20;45.70
53314;DHT22;39202;51.468;7.146;2022-10-26T01:50:28;24.20;45.70
53314;DHT22;39202;51.468;7.146;2022-10-26T01:55:45;24.20;45.70
53314;DHT22;39202;51.468;7.146;2022-10-26T02:00:55;24.20;45.70
53314;DHT22;39202;51.468;7.146;2022-10-26T02:06:05;24.20;45.70
53314;DHT22;39202;51.468;7.146;2022-10-26T02:11:14;24.20;45.70
53314;DHT22;39202;51.468;7.146;2022-10-26T02:16:22;24.20;45.70
53314;DHT22;39202;51.468;7.146;2022-10-26T02:21:32;24.20;45.70
53314;DHT22;39202;51.468;7.146;2022-10-26T02:26:38;24.20;45.70
53314;DHT22;39202;51.468;7.146;2022-10-26T02:31:42;24.20;45.70
53314;DHT22;39202;51.468;7.146;2022-10-26T02:36:46;24.10;45.60
53314;DHT22;39202;51.468;7.146;2022-10-26T02:41:50;24.20;45.70
53314;DHT22;39202;51.468;7.146;2022-10-26T02:46:53;24.20;45.70
53314;DHT22;39202;51.468;7.146;2022-10-26T02:52:01;24.20;45.70
53314;DHT22;39202;51.468;7.146;2022-10-26T02:57:08;24.10;45.70
53314;DHT22;39202;51.468;7.146;2022-10-26T03:02:11;24.10;45.70
53314;DHT22;39202;51.468;7.146;2022-10-26T03:07:21;24.10;45.70
53314;DHT22;39202;51.468;7.146;2022-10-26T03:12:22;24.10;45.70
53314;DHT22;39202;51.468;7.146;2022-10-26T03:17:24;24.10;45.70
53314;DHT22;39202;51.468;7.146;2022-10-26T03:22:27;24.10;45.70
53314;DHT22;39202;51.468;7.146;2022-10-26T03:27:29;24.10;45.70
53314;DHT22;39202;51.468;7.146;2022-10-26T03:32:30;24.10;45.70
53314;DHT22;39202;51.468;7.146;2022-10-26T03:37:33;24.10;45.70
53314;DHT22;39202;51.468;7.146;2022-10-26T03:42:35;24.10;45.70
53314;DHT22;39202;51.468;7.146;2022-10-26T03:47:44;24.10;45.70
53314;DHT22;39202;51.468;7.146;2022-10-26T03:52:48;24.10;45.70
53314;DHT22;39202;51.468;7.146;2022-10-26T03:57:49;24.10;45.70
53314;DHT22;39202;51.468;7.146;2022-10-26T04:02:55;24.10;45.70
53314;DHT22;39202;51.468;7.146;2022-10-26T04:08:00;24.10;45.70
53314;DHT22;39202;51.468;7.146;2022-10-26T04:13:02;24.10;45.70
53314;DHT22;39202;51.468;7.146;2022-10-26T04:18:04;24.10;45.70
53314;DHT22;39202;51.468;7.146;2022-10-26T04:23:10;24.10;45.70
53314;DHT22;39202;51.468;7.146;2022-10-26T04:28:13;24.10;45.70
53314;DHT22;39202;51.468;7.146;2022-10-26T04:33:15;24.10;45.70
53314;DHT22;39202;51.468;7.146;2022-10-26T04:38:18;24.10;45.60
53314;DHT22;39202;51.468;7.146;2022-10-26T04:43:19;24.10;45.80
53314;DHT22;39202;51.468;7.146;2022-10-26T04:48:21;24.10;45.60
53314;DHT22;39202;51.468;7.146;2022-10-26T04:53:24;24.10;45.70
53314;DHT22;39202;51.468;7.146;2022-10-26T04:58:27;24.10;45.70
53314;DHT22;39202;51.468;7.146;2022-10-26T05:03:28;24.00;45.70
53314;DHT22;39202;51.468;7.146;2022-10-26T05:08:31;24.10;45.70
53314;DHT22;39202;51.468;7.146;2022-10-26T05:13:33;24.10;45.70
53314;DHT22;39202;51.468;7.146;2022-10-26T05:18:35;24.10;45.70
53314;DHT22;39202;51.468;7.146;2022-10-26T05:23:38;24.00;45.60
53314;DHT22;39202;51.468;7.146;2022-10-26T05:28:40;24.00;45.70
53314;DHT22;39202;51.468;7.146;2022-10-26T05:33:41;24.00;45.70
53314;DHT22;39202;51.468;7.146;2022-10-26T05:38:44;24.00;45.70
53314;DHT22;39202;51.468;7.146;2022-10-26T05:43:46;24.00;45.70
53314;DHT22;39202;51.468;7.146;2022-10-26T05:48:48;24.00;45.70
53314;DHT22;39202;51.468;7.146;2022-10-26T05:53:51;24.00;45.70
53314;DHT22;39202;51.468;7.146;2022-10-26T05:58:55;24.00;45.70
53314;DHT22;39202;51.468;7.146;2022-10-26T06:04:08;24.00;45.70
53314;DHT22;39202;51.468;7.146;2022-10-26T06:09:16;24.00;45.70
53314;DHT22;39202;51.468;7.146;2022-10-26T06:14:18;24.00;45.70
53314;DHT22;39202;51.468;7.146;2022-10-26T06:19:28;24.00;45.70
53314;DHT22;39202;51.468;7.146;2022-10-26T06:24:39;24.00;45.70
53314;DHT22;39202;51.468;7.146;2022-10-26T06:29:46;23.90;45.70
53314;DHT22;39202;51.468;7.146;2022-10-26T06:34:54;23.90;45.70
53314;DHT22;39202;51.468;7.146;2022-10-26T06:40:03;24.00;45.70
53314;DHT22;39202;51.468;7.146;2022-10-26T06:45:11;24.00;45.70
53314;DHT22;39202;51.468;7.146;2022-10-26T06:50:25;24.00;45.80
53314;DHT22;39202;51.468;7.146;2022-10-26T06:55:30;24.00;45.70
53314;DHT22;39202;51.468;7.146;2022-10-26T07:00:39;23.90;45.70
53314;DHT22;39202;51.468;7.146;2022-10-26T07:05:42;23.90;45.70
53314;DHT22;39202;51.468;7.146;2022-10-26T07:10:45;23.90;45.70
53314;DHT22;39202;51.468;7.146;2022-10-26T07:15:47;24.00;45.70
53314;DHT22;39202;51.468;7.146;2022-10-26T07:20:48;23.90;45.70
53314;DHT22;39202;51.468;7.146;2022-10-26T07:25:51;23.90;45.70
53314;DHT22;39202;51.468;7.146;2022-10-26T07:30:53;24.00;45.80
53314;DHT22;39202;51.468;7.146;2022-10-26T07:35:55;23.90;45.70
53314;DHT22;39202;51.468;7.146;2022-10-26T07:40:58;24.00;45.70
53314;DHT22;39202;51.468;7.146;2022-10-26T07:45:59;24.00;45.80
53314;DHT22;39202;51.468;7.146;2022-10-26T07:51:01;23.90;45.70
53314;DHT22;39202;51.468;7.146;2022-10-26T07:56:05;23.90;45.70
53314;DHT22;39202;51.468;7.146;2022-10-26T08:01:08;23.90;45.70
53314;DHT22;39202;51.468;7.146;2022-10-26T08:06:10;24.00;45.80
53314;DHT22;39202;51.468;7.146;2022-10-26T08:11:13;24.00;45.80
53314;DHT22;39202;51.468;7.146;2022-10-26T08:16:16;24.00;45.90
53314;DHT22;39202;51.468;7.146;2022-10-26T08:21:18;24.00;45.90
53314;DHT22;39202;51.468;7.146;2022-10-26T08:26:21;24.10;46.60
53314;DHT22;39202;51.468;7.146;2022-10-26T08:31:23;24.10;46.00
53314;DHT22;39202;51.468;7.146;2022-10-26T08:36:26;24.10;46.00
53314;DHT22;39202;51.468;7.146;2022-10-26T08:41:35;24.20;46.60
53314;DHT22;39202;51.468;7.146;2022-10-26T08:46:40;24.30;46.00
53314;DHT22;39202;51.468;7.146;2022-10-26T08:51:45;24.30;46.00
53314;DHT22;39202;51.468;7.146;2022-10-26T08:56:51;24.30;46.00
53314;DHT22;39202;51.468;7.146;2022-10-26T09:01:53;24.40;46.00
53314;DHT22;39202;51.468;7.146;2022-10-26T09:07:02;24.40;46.00
53314;DHT22;39202;51.468;7.146;2022-10-26T09:12:14;24.50;46.00
53314;DHT22;39202;51.468;7.146;2022-10-26T09:17:25;24.50;46.00
53314;DHT22;39202;51.468;7.146;2022-10-26T09:22:34;24.60;46.00
53314;DHT22;39202;51.468;7.146;2022-10-26T09:27:44;24.70;46.00
53314;DHT22;39202;51.468;7.146;2022-10-26T09:32:48;24.70;45.90
53314;DHT22;39202;51.468;7.146;2022-10-26T09:37:53;24.80;46.00
53314;DHT22;39202;51.468;7.146;2022-10-26T09:43:00;24.80;45.90
53314;DHT22;39202;51.468;7.146;2022-10-26T09:48:09;24.90;46.00
53314;DHT22;39202;51.468;7.146;2022-10-26T09:53:11;25.00;45.80
53314;DHT22;39202;51.468;7.146;2022-10-26T09:58:17;25.00;45.70
53314;DHT22;39202;51.468;7.146;2022-10-26T10:03:25;25.00;45.60
53314;DHT22;39202;51.468;7.146;2022-10-26T10:08:27;25.10;45.70
53314;DHT22;39202;51.468;7.146;2022-10-26T10:13:32;25.10;45.70
53314;DHT22;39202;51.468;7.146;2022-10-26T10:18:34;25.10;45.60
53314;DHT22;39202;51.468;7.146;2022-10-26T10:23:47;25.10;45.60
53314;DHT22;39202;51.468;7.146;2022-10-26T10:28:57;25.10;45.70
53314;DHT22;39202;51.468;7.146;2022-10-26T10:33:59;25.10;45.70
53314;DHT22;39202;51.468;7.146;2022-10-26T10:39:00;25.20;45.70
53314;DHT22;39202;51.468;7.146;2022-10-26T10:44:07;25.20;45.70
53314;DHT22;39202;51.468;7.146;2022-10-26T10:49:18;25.30;45.70
53314;DHT22;39202;51.468;7.146;2022-10-26T10:54:23;25.30;45.70
53314;DHT22;39202;51.468;7.146;2022-10-26T10:59:36;25.40;45.70
53314;DHT22;39202;51.468;7.146;2022-10-26T11:04:56;25.50;45.70
53314;DHT22;39202;51.468;7.146;2022-10-26T11:10:03;25.50;45.70
53314;DHT22;39202;51.468;7.146;2022-10-26T11:15:11;25.50;45.60
53314;DHT22;39202;51.468;7.146;2022-10-26T11:20:17;25.70;45.70
53314;DHT22;39202;51.468;7.146;2022-10-26T11:25:23;25.70;45.70
53314;DHT22;39202;51.468;7.146;2022-10-26T11:30:29;25.70;45.50
53314;DHT22;39202;51.468;7.146;2022-10-26T11:35:35;27.70;46.60
53314;DHT22;39202;51.468;7.146;2022-10-26T11:40:49;25.90;45.50
53314;DHT22;39202;51.468;7.146;2022-10-26T11:46:03;26.00;45.70
53314;DHT22;39202;51.468;7.146;2022-10-26T11:57:52;26.10;45.60
53314;DHT22;39202;51.468;7.146;2022-10-26T12:10:02;24.50;44.50
53314;DHT22;39202;51.468;7.146;2022-10-26T12:15:47;25.90;45.20
53314;DHT22;39202;51.468;7.146;2022-10-26T13:55:47;26.20;45.00
53314;DHT22;39202;51.468;7.146;2022-10-26T14:01:01;26.20;45.00
53314;DHT22;39202;51.468;7.146;2022-10-26T14:06:04;26.20;45.00
53314;DHT22;39202;51.468;7.146;2022-10-26T14:11:14;26.10;45.00
53314;DHT22;39202;51.468;7.146;2022-10-26T14:16:17;27.80;46.00
53314;DHT22;39202;51.468;7.146;2022-10-26T14:21:21;26.20;45.00
53314;DHT22;39202;51.468;7.146;2022-10-26T14:26:26;26.20;44.90
53314;DHT22;39202;51.468;7.146;2022-10-26T14:31:29;26.20;44.90
53314;DHT22;39202;51.468;7.146;2022-10-26T14:36:35;26.10;44.80
53314;DHT22;39202;51.468;7.146;2022-10-26T14:41:39;26.10;44.90
53314;DHT22;39202;51.468;7.146;2022-10-26T14:46:42;26.10;44.70
53314;DHT22;39202;51.468;7.146;2022-10-26T14:51:44;26.10;44.70
53314;DHT22;39202;51.468;7.146;2022-10-26T14:56:47;26.50;45.00
53314;DHT22;39202;51.468;7.146;2022-10-26T15:01:52;26.00;45.30
53314;DHT22;39202;51.468;7.146;2022-10-26T15:07:00;26.00;45.00
53314;DHT22;39202;51.468;7.146;2022-10-26T15:12:04;26.00;44.90
53314;DHT22;39202;51.468;7.146;2022-10-26T15:17:19;26.00;44.90
53314;DHT22;39202;51.468;7.146;2022-10-26T15:22:23;26.00;44.90
53314;DHT22;39202;51.468;7.146;2022-10-26T15:27:28;26.00;44.90
53314;DHT22;39202;51.468;7.146;2022-10-26T15:32:31;25.90;44.70
53314;DHT22;39202;51.468;7.146;2022-10-26T15:37:34;25.90;44.90
53314;DHT22;39202;51.468;7.146;2022-10-26T15:42:39;25.90;44.70
53314;DHT22;39202;51.468;7.146;2022-10-26T15:47:41;25.90;44.90
53314;DHT22;39202;51.468;7.146;2022-10-26T15:52:43;25.90;44.70
53314;DHT22;39202;51.468;7.146;2022-10-26T15:57:46;25.80;44.60
53314;DHT22;39202;51.468;7.146;2022-10-26T16:02:47;26.70;45.20
53314;DHT22;39202;51.468;7.146;2022-10-26T16:07:49;25.80;44.60
53314;DHT22;39202;51.468;7.146;2022-10-26T16:12:52;25.80;44.60
53314;DHT22;39202;51.468;7.146;2022-10-26T16:17:55;26.50;45.20
53314;DHT22;39202;51.468;7.146;2022-10-26T16:22:57;25.80;44.60
53314;DHT22;39202;51.468;7.146;2022-10-26T16:28:02;25.80;44.70
53314;DHT22;39202;51.468;7.146;2022-10-26T16:33:04;25.80;44.70
53314;DHT22;39202;51.468;7.146;2022-10-26T16:38:05;25.80;44.70
53314;DHT22;39202;51.468;7.146;2022-10-26T16:43:09;25.70;44.60
53314;DHT22;39202;51.468;7.146;2022-10-26T16:48:10;25.70;44.90
53314;DHT22;39202;51.468;7.146;2022-10-26T16:53:15;25.90;44.90
53314;DHT22;39202;51.468;7.146;2022-10-26T16:58:18;25.70;44.60
53314;DHT22;39202;51.468;7.146;2022-10-26T17:03:19;25.70;44.50
53314;DHT22;39202;51.468;7.146;2022-10-26T17:08:21;25.70;44.70
53314;DHT22;39202;51.468;7.146;2022-10-26T17:13:24;25.70;44.70
53314;DHT22;39202;51.468;7.146;2022-10-26T17:18:28;25.90;44.60
53314;DHT22;39202;51.468;7.146;2022-10-26T17:23:31;25.70;44.90
53314;DHT22;39202;51.468;7.146;2022-10-26T17:29:21;25.60;44.40
53314;DHT22;39202;51.468;7.146;2022-10-26T17:34:23;25.60;45.00
53314;DHT22;39202;51.468;7.146;2022-10-26T17:39:25;25.60;44.50
53314;DHT22;39202;51.468;7.146;2022-10-26T17:44:28;25.80;44.70
53314;DHT22;39202;51.468;7.146;2022-10-26T17:49:30;25.90;44.80
53314;DHT22;39202;51.468;7.146;2022-10-26T17:54:31;25.50;44.60
53314;DHT22;39202;51.468;7.146;2022-10-26T17:59:34;25.60;44.80
53314;DHT22;39202;51.468;7.146;2022-10-26T18:04:36;25.50;44.60
53314;DHT22;39202;51.468;7.146;2022-10-26T18:09:38;25.60;44.60
53314;DHT22;39202;51.468;7.146;2022-10-26T18:14:41;26.90;45.60
53314;DHT22;39202;51.468;7.146;2022-10-26T18:19:42;25.90;44.90
53314;DHT22;39202;51.468;7.146;2022-10-26T18:24:44;25.50;44.80
53314;DHT22;39202;51.468;7.146;2022-10-26T18:29:47;25.50;44.80
53314;DHT22;39202;51.468;7.146;2022-10-26T18:34:49;25.40;44.70
53314;DHT22;39202;51.468;7.146;2022-10-26T18:39:51;25.50;44.70
53314;DHT22;39202;51.468;7.146;2022-10-26T18:44:54;25.60;44.90
53314;DHT22;39202;51.468;7.146;2022-10-26T18:50:00;25.50;44.90
53314;DHT22;39202;51.468;7.146;2022-10-26T18:55:01;25.50;44.70
53314;DHT22;39202;51.468;7.146;2022-10-26T19:00:07;25.50;44.60
53314;DHT22;39202;51.468;7.146;2022-10-26T19:05:09;25.50;44.90
53314;DHT22;39202;51.468;7.146;2022-10-26T19:10:10;25.50;44.70
53314;DHT22;39202;51.468;7.146;2022-10-26T19:15:14;25.70;44.70
53314;DHT22;39202;51.468;7.146;2022-10-26T19:20:16;25.40;44.50
53314;DHT22;39202;51.468;7.146;2022-10-26T19:25:18;25.30;44.60
53314;DHT22;39202;51.468;7.146;2022-10-26T19:30:21;25.40;44.80
53314;DHT22;39202;51.468;7.146;2022-10-26T19:35:23;25.30;44.60
53314;DHT22;39202;51.468;7.146;2022-10-26T19:40:25;25.50;44.90
53314;DHT22;39202;51.468;7.146;2022-10-26T19:45:28;25.30;44.60
53314;DHT22;39202;51.468;7.146;2022-10-26T19:50:30;25.50;44.80
53314;DHT22;39202;51.468;7.146;2022-10-26T19:55:31;25.30;44.80
53314;DHT22;39202;51.468;7.146;2022-10-26T20:00:34;25.30;45.00
53314;DHT22;39202;51.468;7.146;2022-10-26T20:05:38;25.30;45.00
53314;DHT22;39202;51.468;7.146;2022-10-26T20:10:41;25.30;45.00
53314;DHT22;39202;51.468;7.146;2022-10-26T20:15:44;25.30;45.00
53314;DHT22;39202;51.468;7.146;2022-10-26T20:20:46;25.30;45.00
53314;DHT22;39202;51.468;7.146;2022-10-26T20:25:49;25.30;44.90
53314;DHT22;39202;51.468;7.146;2022-10-26T20:30:52;25.40;45.00
53314;DHT22;39202;51.468;7.146;2022-10-26T20:35:55;25.40;44.90
53314;DHT22;39202;51.468;7.146;2022-10-26T20:40:58;25.30;45.60
53314;DHT22;39202;51.468;7.146;2022-10-26T20:46:02;25.30;45.00
53314;DHT22;39202;51.468;7.146;2022-10-26T20:51:10;25.30;45.00
53314;DHT22;39202;51.468;7.146;2022-10-26T20:56:21;25.30;45.10
53314;DHT22;39202;51.468;7.146;2022-10-26T21:01:26;25.20;45.00
53314;DHT22;39202;51.468;7.146;2022-10-26T21:06:28;25.30;45.10
53314;DHT22;39202;51.468;7.146;2022-10-26T21:11:31;25.30;45.10
53314;DHT22;39202;51.468;7.146;2022-10-26T21:16:34;25.30;45.00
53314;DHT22;39202;51.468;7.146;2022-10-26T21:21:36;25.30;45.00
53314;DHT22;39202;51.468;7.146;2022-10-26T21:26:38;25.20;45.00
53314;DHT22;39202;51.468;7.146;2022-10-26T21:31:41;25.20;45.00
53314;DHT22;39202;51.468;7.146;2022-10-26T21:36:42;25.20;45.00
53314;DHT22;39202;51.468;7.146;2022-10-26T21:41:44;25.20;45.10
53314;DHT22;39202;51.468;7.146;2022-10-26T21:46:47;25.20;45.00
53314;DHT22;39202;51.468;7.146;2022-10-26T21:51:49;25.20;45.00
53314;DHT22;39202;51.468;7.146;2022-10-26T21:56:50;25.20;45.00
53314;DHT22;39202;51.468;7.146;2022-10-26T22:01:54;25.20;44.90
53314;DHT22;39202;51.468;7.146;2022-10-26T22:06:55;25.20;44.90
53314;DHT22;39202;51.468;7.146;2022-10-26T22:11:57;25.20;44.90
53314;DHT22;39202;51.468;7.146;2022-10-26T22:17:00;25.20;44.90
53314;DHT22;39202;51.468;7.146;2022-10-26T22:22:02;25.20;44.90
53314;DHT22;39202;51.468;7.146;2022-10-26T22:27:03;25.20;45.00
53314;DHT22;39202;51.468;7.146;2022-10-26T22:32:06;25.20;45.00
53314;DHT22;39202;51.468;7.146;2022-10-26T22:37:08;25.20;45.00
53314;DHT22;39202;51.468;7.146;2022-10-26T22:42:10;25.20;45.00
53314;DHT22;39202;51.468;7.146;2022-10-26T22:47:13;25.20;44.90
53314;DHT22;39202;51.468;7.146;2022-10-26T22:52:14;25.20;45.60
53314;DHT22;39202;51.468;7.146;2022-10-26T22:57:16;25.20;44.90
53314;DHT22;39202;51.468;7.146;2022-10-26T23:02:19;25.10;45.00
53314;DHT22;39202;51.468;7.146;2022-10-26T23:07:21;25.10;45.00
53314;DHT22;39202;51.468;7.146;2022-10-26T23:12:25;25.10;45.00
53314;DHT22;39202;51.468;7.146;2022-10-26T23:17:28;25.10;45.00
53314;DHT22;39202;51.468;7.146;2022-10-26T23:22:30;25.10;45.00
53314;DHT22;39202;51.468;7.146;2022-10-26T23:27:31;25.10;45.00
53314;DHT22;39202;51.468;7.146;2022-10-26T23:32:35;25.10;45.00
53314;DHT22;39202;51.468;7.146;2022-10-26T23:37:37;25.10;45.00
53314;DHT22;39202;51.468;7.146;2022-10-26T23:42:39;25.10;44.90
53314;DHT22;39202;51.468;7.146;2022-10-26T23:47:42;25.10;45.00
53314;DHT22;39202;51.468;7.146;2022-10-26T23:52:46;25.10;45.00
53314;DHT22;39202;51.468;7.146;2022-10-26T23:57:47;25.10;45.00
